sensor_id;sensor_type;location;lat;lon;timestamp;pressure;altitude;pressure_sealevel;temperature;humidity
32298;BME280;18782;48.984;8.548;2024-02-28T00:00:19;99978.41;;;6.65;100.00
32298;BME280;18782;48.984;8.548;2024-02-28T00:02:47;99975.47;;;6.56;100.00
32298;BME280;18782;48.984;8.548;2024-02-28T00:05:15;99979.47;;;6.49;100.00
32298;BME280;18782;48.984;8.548;2024-02-28T00:07:43;99978.41;;;6.44;100.00
32298;BME280;18782;48.984;8.548;2024-02-28T00:10:12;99979.13;;;6.41;100.00
32298;BME280;18782;48.984;8.548;2024-02-28T00:12:40;99985.81;;;6.38;100.00
32298;BME280;18782;48.984;8.548;2024-02-28T00:15:08;99979.56;;;6.31;100.00
32298;BME280;18782;48.984;8.548;2024-02-28T00:17:39;99987.94;;;6.27;100.00
32298;BME280;18782;48.984;8.548;2024-02-28T00:20:09;99987.78;;;6.24;100.00
32298;BME280;18782;48.984;8.548;2024-02-28T00:22:38;99992.75;;;6.21;100.00
32298;BME280;18782;48.984;8.548;2024-02-28T00:25:06;99994.25;;;6.16;100.00
32298;BME280;18782;48.984;8.548;2024-02-28T00:27:36;99992.25;;;6.09;100.00
32298;BME280;18782;48.984;8.548;2024-02-28T00:30:05;99986.88;;;6.03;100.00
32298;BME280;18782;48.984;8.548;2024-02-28T00:32:33;99990.84;;;5.96;100.00
32298;BME280;18782;48.984;8.548;2024-02-28T00:35:03;99994.78;;;5.89;100.00
32298;BME280;18782;48.984;8.548;2024-02-28T00:37:30;99996.25;;;5.84;100.00
32298;BME280;18782;48.984;8.548;2024-02-28T00:39:58;100001.09;;;5.78;100.00
32298;BME280;18782;48.984;8.548;2024-02-28T00:42:26;100005.94;;;5.72;100.00
32298;BME280;18782;48.984;8.548;2024-02-28T00:44:54;100007.19;;;5.62;100.00
32298;BME280;18782;48.984;8.548;2024-02-28T00:47:22;100007.13;;;5.61;100.00
32298;BME280;18782;48.984;8.548;2024-02-28T00:49:50;100010.50;;;5.60;100.00
32298;BME280;18782;48.984;8.548;2024-02-28T00:52:18;100006.72;;;5.52;100.00
32298;BME280;18782;48.984;8.548;2024-02-28T00:54:46;100006.44;;;5.45;100.00
32298;BME280;18782;48.984;8.548;2024-02-28T00:57:14;100014.91;;;5.44;100.00
32298;BME280;18782;48.984;8.548;2024-02-28T00:59:42;100006.28;;;5.42;100.00
32298;BME280;18782;48.984;8.548;2024-02-28T01:02:11;100006.97;;;5.38;100.00
32298;BME280;18782;48.984;8.548;2024-02-28T01:04:39;100009.38;;;5.35;100.00
32298;BME280;18782;48.984;8.548;2024-02-28T01:07:07;100018.56;;;5.32;100.00
32298;BME280;18782;48.984;8.548;2024-02-28T01:09:36;100017.41;;;5.25;100.00
32298;BME280;18782;48.984;8.548;2024-02-28T01:12:04;100023.91;;;5.18;100.00
32298;BME280;18782;48.984;8.548;2024-02-28T01:14:32;100020.22;;;5.12;100.00
32298;BME280;18782;48.984;8.548;2024-02-28T01:17:00;100018.16;;;5.05;100.00
32298;BME280;18782;48.984;8.548;2024-02-28T01:19:27;100020.34;;;4.97;100.00
32298;BME280;18782;48.984;8.548;2024-02-28T01:21:55;100013.19;;;4.90;100.00
32298;BME280;18782;48.984;8.548;2024-02-28T01:24:23;100012.91;;;4.84;100.00
32298;BME280;18782;48.984;8.548;2024-02-28T01:26:51;100010.28;;;4.82;100.00
32298;BME280;18782;48.984;8.548;2024-02-28T01:29:19;100021.94;;;4.77;100.00
32298;BME280;18782;48.984;8.548;2024-02-28T01:31:47;100011.66;;;4.76;100.00
32298;BME280;18782;48.984;8.548;2024-02-28T01:34:14;100013.19;;;4.72;100.00
32298;BME280;18782;48.984;8.548;2024-02-28T01:36:42;100017.19;;;4.67;100.00
32298;BME280;18782;48.984;8.548;2024-02-28T01:39:10;100015.91;;;4.59;100.00
32298;BME280;18782;48.984;8.548;2024-02-28T01:41:38;100019.13;;;4.55;100.00
32298;BME280;18782;48.984;8.548;2024-02-28T01:44:07;100018.91;;;4.50;100.00
32298;BME280;18782;48.984;8.548;2024-02-28T01:46:35;100009.94;;;4.40;100.00
32298;BME280;18782;48.984;8.548;2024-02-28T01:49:03;100012.19;;;4.34;100.00
32298;BME280;18782;48.984;8.548;2024-02-28T01:51:31;100019.66;;;4.31;100.00
32298;BME280;18782;48.984;8.548;2024-02-28T01:53:59;100011.88;;;4.28;100.00
32298;BME280;18782;48.984;8.548;2024-02-28T01:56:27;100014.25;;;4.25;100.00
32298;BME280;18782;48.984;8.548;2024-02-28T01:58:55;100018.31;;;4.22;100.00
32298;BME280;18782;48.984;8.548;2024-02-28T02:01:26;100021.59;;;4.19;100.00
32298;BME280;18782;48.984;8.548;2024-02-28T02:03:54;100028.13;;;4.14;100.00
32298;BME280;18782;48.984;8.548;2024-02-28T02:06:22;100033.28;;;4.15;100.00
32298;BME280;18782;48.984;8.548;2024-02-28T02:08:50;100040.13;;;4.16;100.00
32298;BME280;18782;48.984;8.548;2024-02-28T02:11:17;100039.13;;;4.13;100.00
32298;BME280;18782;48.984;8.548;2024-02-28T02:13:49;100048.44;;;4.12;100.00
32298;BME280;18782;48.984;8.548;2024-02-28T02:16:18;100052.50;;;4.09;100.00
32298;BME280;18782;48.984;8.548;2024-02-28T02:18:48;100050.06;;;4.12;100.00
32298;BME280;18782;48.984;8.548;2024-02-28T02:21:18;100047.53;;;4.12;100.00
32298;BME280;18782;48.984;8.548;2024-02-28T02:23:48;100054.22;;;4.10;100.00
32298;BME280;18782;48.984;8.548;2024-02-28T02:26:16;100056.53;;;4.05;100.00
32298;BME280;18782;48.984;8.548;2024-02-28T02:28:43;100060.59;;;4.02;100.00
32298;BME280;18782;48.984;8.548;2024-02-28T02:31:12;100055.19;;;3.96;100.00
32298;BME280;18782;48.984;8.548;2024-02-28T02:33:40;100060.03;;;3.91;100.00
32298;BME280;18782;48.984;8.548;2024-02-28T02:36:08;100067.34;;;3.85;100.00
32298;BME280;18782;48.984;8.548;2024-02-28T02:38:36;100069.50;;;3.77;100.00
32298;BME280;18782;48.984;8.548;2024-02-28T02:41:06;100070.13;;;3.73;100.00
32298;BME280;18782;48.984;8.548;2024-02-28T02:43:33;100079.19;;;3.68;100.00
32298;BME280;18782;48.984;8.548;2024-02-28T02:46:01;100078.94;;;3.63;100.00
32298;BME280;18782;48.984;8.548;2024-02-28T02:48:29;100089.34;;;3.52;100.00
32298;BME280;18782;48.984;8.548;2024-02-28T02:50:57;100092.44;;;3.46;100.00
32298;BME280;18782;48.984;8.548;2024-02-28T02:53:24;100105.16;;;3.46;100.00
32298;BME280;18782;48.984;8.548;2024-02-28T02:55:52;100104.16;;;3.44;100.00
32298;BME280;18782;48.984;8.548;2024-02-28T02:58:21;100105.25;;;3.33;100.00
32298;BME280;18782;48.984;8.548;2024-02-28T03:00:49;100119.97;;;3.38;100.00
32298;BME280;18782;48.984;8.548;2024-02-28T03:03:17;100118.31;;;3.39;100.00
32298;BME280;18782;48.984;8.548;2024-02-28T03:05:45;100120.16;;;3.42;100.00
32298;BME280;18782;48.984;8.548;2024-02-28T03:08:12;100130.69;;;3.48;100.00
32298;BME280;18782;48.984;8.548;2024-02-28T03:10:40;100126.53;;;3.50;100.00
32298;BME280;18782;48.984;8.548;2024-02-28T03:13:08;100129.25;;;3.53;100.00
32298;BME280;18782;48.984;8.548;2024-02-28T03:15:37;100126.91;;;3.56;100.00
32298;BME280;18782;48.984;8.548;2024-02-28T03:18:04;100125.47;;;3.61;100.00
32298;BME280;18782;48.984;8.548;2024-02-28T03:20:32;100128.19;;;3.64;100.00
32298;BME280;18782;48.984;8.548;2024-02-28T03:23:00;100117.31;;;3.66;100.00
32298;BME280;18782;48.984;8.548;2024-02-28T03:25:28;100123.09;;;3.64;100.00
32298;BME280;18782;48.984;8.548;2024-02-28T03:27:57;100125.00;;;3.68;100.00
32298;BME280;18782;48.984;8.548;2024-02-28T03:30:25;100129.47;;;3.72;100.00
32298;BME280;18782;48.984;8.548;2024-02-28T03:32:54;100126.31;;;3.76;100.00
32298;BME280;18782;48.984;8.548;2024-02-28T03:35:21;100135.16;;;3.83;100.00
32298;BME280;18782;48.984;8.548;2024-02-28T03:37:49;100137.97;;;3.87;100.00
32298;BME280;18782;48.984;8.548;2024-02-28T03:40:17;100133.81;;;3.89;100.00
32298;BME280;18782;48.984;8.548;2024-02-28T03:42:44;100133.88;;;3.91;100.00
32298;BME280;18782;48.984;8.548;2024-02-28T03:45:12;100131.44;;;3.92;100.00
32298;BME280;18782;48.984;8.548;2024-02-28T03:47:40;100140.03;;;3.95;100.00
32298;BME280;18782;48.984;8.548;2024-02-28T03:50:09;100140.97;;;3.97;100.00
32298;BME280;18782;48.984;8.548;2024-02-28T03:52:37;100144.56;;;4.00;100.00
32298;BME280;18782;48.984;8.548;2024-02-28T03:55:05;100143.69;;;4.00;100.00
32298;BME280;18782;48.984;8.548;2024-02-28T03:57:32;100143.69;;;4.00;100.00
32298;BME280;18782;48.984;8.548;2024-02-28T04:00:00;100157.56;;;4.05;100.00
32298;BME280;18782;48.984;8.548;2024-02-28T04:02:37;100149.28;;;4.09;100.00
32298;BME280;18782;48.984;8.548;2024-02-28T04:05:05;100152.78;;;4.11;100.00
32298;BME280;18782;48.984;8.548;2024-02-28T04:07:34;100148.72;;;4.14;100.00
32298;BME280;18782;48.984;8.548;2024-02-28T04:10:02;100153.97;;;4.17;100.00
32298;BME280;18782;48.984;8.548;2024-02-28T04:12:31;100158.38;;;4.20;100.00
32298;BME280;18782;48.984;8.548;2024-02-28T04:14:59;100159.97;;;4.18;100.00
32298;BME280;18782;48.984;8.548;2024-02-28T04:17:27;100160.28;;;4.24;100.00
32298;BME280;18782;48.984;8.548;2024-02-28T04:19:55;100162.22;;;4.28;100.00
32298;BME280;18782;48.984;8.548;2024-02-28T04:22:24;100166.41;;;4.28;100.00
32298;BME280;18782;48.984;8.548;2024-02-28T04:24:53;100173.44;;;4.32;100.00
32298;BME280;18782;48.984;8.548;2024-02-28T04:27:20;100165.88;;;4.33;100.00
32298;BME280;18782;48.984;8.548;2024-02-28T04:29:48;100171.13;;;4.36;100.00
32298;BME280;18782;48.984;8.548;2024-02-28T04:32:15;100174.63;;;4.38;100.00
32298;BME280;18782;48.984;8.548;2024-02-28T04:34:43;100188.34;;;4.40;100.00
32298;BME280;18782;48.984;8.548;2024-02-28T04:37:11;100186.59;;;4.39;100.00
32298;BME280;18782;48.984;8.548;2024-02-28T04:39:38;100192.69;;;4.43;100.00
32298;BME280;18782;48.984;8.548;2024-02-28T04:42:08;100186.03;;;4.45;100.00
32298;BME280;18782;48.984;8.548;2024-02-28T04:44:36;100194.47;;;4.44;100.00
32298;BME280;18782;48.984;8.548;2024-02-28T04:47:03;100191.81;;;4.42;100.00
32298;BME280;18782;48.984;8.548;2024-02-28T04:49:31;100196.78;;;4.39;100.00
32298;BME280;18782;48.984;8.548;2024-02-28T04:51:59;100211.28;;;4.40;100.00
32298;BME280;18782;48.984;8.548;2024-02-28T04:54:27;100209.91;;;4.47;100.00
32298;BME280;18782;48.984;8.548;2024-02-28T04:56:54;100206.81;;;4.53;100.00
32298;BME280;18782;48.984;8.548;2024-02-28T04:59:23;100209.53;;;4.56;100.00
32298;BME280;18782;48.984;8.548;2024-02-28T05:01:51;100223.97;;;4.55;100.00
32298;BME280;18782;48.984;8.548;2024-02-28T05:04:19;100216.38;;;4.57;100.00
32298;BME280;18782;48.984;8.548;2024-02-28T05:06:47;100222.34;;;4.57;100.00
32298;BME280;18782;48.984;8.548;2024-02-28T05:09:15;100220.75;;;4.59;100.00
32298;BME280;18782;48.984;8.548;2024-02-28T05:11:43;100223.47;;;4.62;100.00
32298;BME280;18782;48.984;8.548;2024-02-28T05:14:11;100219.19;;;4.61;100.00
32298;BME280;18782;48.984;8.548;2024-02-28T05:16:40;100231.28;;;4.65;100.00
32298;BME280;18782;48.984;8.548;2024-02-28T05:19:08;100232.97;;;4.65;100.00
32298;BME280;18782;48.984;8.548;2024-02-28T05:21:39;100223.41;;;4.61;100.00
32298;BME280;18782;48.984;8.548;2024-02-28T05:24:08;100220.06;;;4.62;100.00
32298;BME280;18782;48.984;8.548;2024-02-28T05:26:36;100222.78;;;4.65;100.00
32298;BME280;18782;48.984;8.548;2024-02-28T05:29:04;100220.38;;;4.68;100.00
32298;BME280;18782;48.984;8.548;2024-02-28T05:31:32;100221.97;;;4.66;100.00
32298;BME280;18782;48.984;8.548;2024-02-28T05:34:01;100220.22;;;4.65;100.00
32298;BME280;18782;48.984;8.548;2024-02-28T05:36:30;100218.44;;;4.64;100.00
32298;BME280;18782;48.984;8.548;2024-02-28T05:39:00;100214.63;;;4.56;100.00
32298;BME280;18782;48.984;8.548;2024-02-28T05:41:28;100212.53;;;4.49;100.00
32298;BME280;18782;48.984;8.548;2024-02-28T05:43:56;100213.97;;;4.43;100.00
32298;BME280;18782;48.984;8.548;2024-02-28T05:46:23;100216.50;;;4.43;100.00
32298;BME280;18782;48.984;8.548;2024-02-28T05:48:51;100210.28;;;4.38;100.00
32298;BME280;18782;48.984;8.548;2024-02-28T05:51:20;100218.41;;;4.31;100.00
32298;BME280;18782;48.984;8.548;2024-02-28T05:53:48;100225.75;;;4.25;100.00
32298;BME280;18782;48.984;8.548;2024-02-28T05:56:17;100228.84;;;4.19;100.00
32298;BME280;18782;48.984;8.548;2024-02-28T05:58:47;100230.25;;;4.14;100.00
32298;BME280;18782;48.984;8.548;2024-02-28T06:01:15;100237.72;;;4.11;100.00
32298;BME280;18782;48.984;8.548;2024-02-28T06:03:45;100236.69;;;4.08;100.00
32298;BME280;18782;48.984;8.548;2024-02-28T06:06:12;100239.91;;;4.20;100.00
32298;BME280;18782;48.984;8.548;2024-02-28T06:08:43;100233.34;;;4.09;100.00
32298;BME280;18782;48.984;8.548;2024-02-28T06:11:10;100237.31;;;4.04;100.00
32298;BME280;18782;48.984;8.548;2024-02-28T06:13:40;100243.09;;;4.01;100.00
32298;BME280;18782;48.984;8.548;2024-02-28T06:16:12;100242.97;;;3.98;100.00
32298;BME280;18782;48.984;8.548;2024-02-28T06:18:40;100242.63;;;3.92;100.00
32298;BME280;18782;48.984;8.548;2024-02-28T06:21:08;100239.63;;;3.84;100.00
32298;BME280;18782;48.984;8.548;2024-02-28T06:23:35;100250.34;;;3.93;100.00
32298;BME280;18782;48.984;8.548;2024-02-28T06:26:04;100253.50;;;4.84;100.00
32298;BME280;18782;48.984;8.548;2024-02-28T06:28:32;100258.78;;;4.55;100.00
32298;BME280;18782;48.984;8.548;2024-02-28T06:31:00;100267.03;;;4.34;100.00
32298;BME280;18782;48.984;8.548;2024-02-28T06:33:27;100273.72;;;4.17;100.00
32298;BME280;18782;48.984;8.548;2024-02-28T06:35:55;100271.22;;;4.03;100.00
32298;BME280;18782;48.984;8.548;2024-02-28T06:38:23;100270.72;;;3.93;100.00
32298;BME280;18782;48.984;8.548;2024-02-28T06:40:51;100280.56;;;3.87;100.00
32298;BME280;18782;48.984;8.548;2024-02-28T06:43:20;100276.31;;;4.03;100.00
32298;BME280;18782;48.984;8.548;2024-02-28T06:45:47;100286.66;;;4.21;100.00
32298;BME280;18782;48.984;8.548;2024-02-28T06:48:15;100296.16;;;4.23;100.00
32298;BME280;18782;48.984;8.548;2024-02-28T06:50:43;100289.41;;;4.40;100.00
32298;BME280;18782;48.984;8.548;2024-02-28T06:53:10;100302.22;;;4.41;100.00
32298;BME280;18782;48.984;8.548;2024-02-28T06:55:38;100301.69;;;4.47;100.00
32298;BME280;18782;48.984;8.548;2024-02-28T06:58:06;100314.69;;;4.52;100.00
32298;BME280;18782;48.984;8.548;2024-02-28T07:00:34;100314.38;;;4.62;100.00
32298;BME280;18782;48.984;8.548;2024-02-28T07:03:02;100322.34;;;4.68;100.00
32298;BME280;18782;48.984;8.548;2024-02-28T07:05:30;100327.97;;;4.77;100.00
32298;BME280;18782;48.984;8.548;2024-02-28T07:07:58;100335.00;;;4.81;100.00
32298;BME280;18782;48.984;8.548;2024-02-28T07:10:26;100337.06;;;4.88;100.00
32298;BME280;18782;48.984;8.548;2024-02-28T07:12:53;100336.94;;;5.02;100.00
32298;BME280;18782;48.984;8.548;2024-02-28T07:15:21;100342.97;;;5.04;100.00
32298;BME280;18782;48.984;8.548;2024-02-28T07:17:50;100340.50;;;5.05;100.00
32298;BME280;18782;48.984;8.548;2024-02-28T07:20:18;100344.97;;;5.26;100.00
32298;BME280;18782;48.984;8.548;2024-02-28T07:22:46;100351.13;;;5.29;100.00
32298;BME280;18782;48.984;8.548;2024-02-28T07:25:14;100358.13;;;5.33;100.00
32298;BME280;18782;48.984;8.548;2024-02-28T07:27:41;100355.25;;;5.43;100.00
32298;BME280;18782;48.984;8.548;2024-02-28T07:30:09;100357.00;;;5.44;100.00
32298;BME280;18782;48.984;8.548;2024-02-28T07:32:38;100354.28;;;5.41;100.00
32298;BME280;18782;48.984;8.548;2024-02-28T07:35:08;100363.38;;;5.36;100.00
32298;BME280;18782;48.984;8.548;2024-02-28T07:37:36;100362.91;;;5.27;100.00
32298;BME280;18782;48.984;8.548;2024-02-28T07:40:05;100364.03;;;5.16;100.00
32298;BME280;18782;48.984;8.548;2024-02-28T07:42:34;100369.78;;;5.12;100.00
32298;BME280;18782;48.984;8.548;2024-02-28T07:45:02;100369.59;;;5.09;100.00
32298;BME280;18782;48.984;8.548;2024-02-28T07:47:30;100364.44;;;5.07;100.00
32298;BME280;18782;48.984;8.548;2024-02-28T07:49:57;100373.22;;;5.12;100.00
32298;BME280;18782;48.984;8.548;2024-02-28T07:52:27;100377.50;;;5.13;100.00
32298;BME280;18782;48.984;8.548;2024-02-28T07:54:54;100380.13;;;5.15;100.00
32298;BME280;18782;48.984;8.548;2024-02-28T07:57:22;100381.56;;;5.26;100.00
32298;BME280;18782;48.984;8.548;2024-02-28T07:59:50;100384.44;;;5.32;100.00
32298;BME280;18782;48.984;8.548;2024-02-28T08:02:17;100379.34;;;5.32;100.00
32298;BME280;18782;48.984;8.548;2024-02-28T08:04:47;100386.69;;;5.26;100.00
32298;BME280;18782;48.984;8.548;2024-02-28T08:07:16;100376.72;;;5.31;100.00
32298;BME280;18782;48.984;8.548;2024-02-28T08:09:44;100376.25;;;5.38;100.00
32298;BME280;18782;48.984;8.548;2024-02-28T08:12:12;100380.94;;;5.46;100.00
32298;BME280;18782;48.984;8.548;2024-02-28T08:14:40;100385.41;;;5.50;100.00
32298;BME280;18782;48.984;8.548;2024-02-28T08:17:07;100383.97;;;5.56;100.00
32298;BME280;18782;48.984;8.548;2024-02-28T08:19:35;100388.75;;;5.66;100.00
32298;BME280;18782;48.984;8.548;2024-02-28T08:22:03;100394.47;;;5.78;100.00
32298;BME280;18782;48.984;8.548;2024-02-28T08:24:31;100392.44;;;5.89;100.00
32298;BME280;18782;48.984;8.548;2024-02-28T08:26:59;100401.97;;;6.08;100.00
32298;BME280;18782;48.984;8.548;2024-02-28T08:29:27;100399.28;;;6.22;100.00
32298;BME280;18782;48.984;8.548;2024-02-28T08:31:55;100403.47;;;6.38;100.00
32298;BME280;18782;48.984;8.548;2024-02-28T08:34:22;100403.69;;;6.43;100.00
32298;BME280;18782;48.984;8.548;2024-02-28T08:36:50;100397.69;;;6.42;100.00
32298;BME280;18782;48.984;8.548;2024-02-28T08:39:18;100392.84;;;6.31;100.00
32298;BME280;18782;48.984;8.548;2024-02-28T08:41:46;100398.47;;;6.23;100.00
32298;BME280;18782;48.984;8.548;2024-02-28T08:44:15;100406.41;;;6.12;100.00
32298;BME280;18782;48.984;8.548;2024-02-28T08:46:46;100404.50;;;6.08;100.00
32298;BME280;18782;48.984;8.548;2024-02-28T08:49:14;100402.50;;;6.36;100.00
32298;BME280;18782;48.984;8.548;2024-02-28T08:51:42;100395.03;;;6.41;100.00
32298;BME280;18782;48.984;8.548;2024-02-28T08:54:11;100401.47;;;6.50;100.00
32298;BME280;18782;48.984;8.548;2024-02-28T08:56:39;100403.34;;;6.37;100.00
32298;BME280;18782;48.984;8.548;2024-02-28T08:59:20;100404.69;;;6.46;100.00
32298;BME280;18782;48.984;8.548;2024-02-28T09:01:48;100404.91;;;6.51;100.00
32298;BME280;18782;48.984;8.548;2024-02-28T09:04:16;100401.34;;;6.47;100.00
32298;BME280;18782;48.984;8.548;2024-02-28T09:06:43;100395.91;;;6.41;100.00
32298;BME280;18782;48.984;8.548;2024-02-28T09:09:11;100392.13;;;6.51;100.00
32298;BME280;18782;48.984;8.548;2024-02-28T09:11:39;100386.50;;;6.76;100.00
32298;BME280;18782;48.984;8.548;2024-02-28T09:14:06;100390.72;;;6.58;99.75
32298;BME280;18782;48.984;8.548;2024-02-28T09:16:36;100400.16;;;6.94;100.00
32298;BME280;18782;48.984;8.548;2024-02-28T09:19:04;100403.59;;;7.14;100.00
32298;BME280;18782;48.984;8.548;2024-02-28T09:21:32;100411.16;;;7.30;100.00
32298;BME280;18782;48.984;8.548;2024-02-28T09:24:00;100405.84;;;7.45;100.00
32298;BME280;18782;48.984;8.548;2024-02-28T09:26:28;100416.75;;;7.41;96.47
32298;BME280;18782;48.984;8.548;2024-02-28T09:28:55;100425.13;;;7.56;98.12
32298;BME280;18782;48.984;8.548;2024-02-28T09:31:23;100415.53;;;7.72;96.67
32298;BME280;18782;48.984;8.548;2024-02-28T09:33:53;100419.88;;;7.73;96.73
32298;BME280;18782;48.984;8.548;2024-02-28T09:36:21;100416.34;;;7.90;97.05
32298;BME280;18782;48.984;8.548;2024-02-28T09:38:48;100411.34;;;8.14;96.13
32298;BME280;18782;48.984;8.548;2024-02-28T09:41:17;100405.97;;;8.29;95.22
32298;BME280;18782;48.984;8.548;2024-02-28T09:43:45;100409.34;;;8.28;94.96
32298;BME280;18782;48.984;8.548;2024-02-28T09:46:14;100409.34;;;8.28;94.97
32298;BME280;18782;48.984;8.548;2024-02-28T09:48:42;100411.25;;;8.32;94.70
32298;BME280;18782;48.984;8.548;2024-02-28T09:51:17;100421.78;;;8.38;93.89
32298;BME280;18782;48.984;8.548;2024-02-28T09:53:45;100422.53;;;8.56;93.93
32298;BME280;18782;48.984;8.548;2024-02-28T09:56:15;100423.69;;;8.65;93.46
32298;BME280;18782;48.984;8.548;2024-02-28T09:58:42;100419.31;;;8.83;92.10
32298;BME280;18782;48.984;8.548;2024-02-28T10:01:11;100421.66;;;8.99;90.69
32298;BME280;18782;48.984;8.548;2024-02-28T10:03:41;100425.38;;;9.30;91.68
32298;BME280;18782;48.984;8.548;2024-02-28T10:06:10;100421.28;;;9.35;88.57
32298;BME280;18782;48.984;8.548;2024-02-28T10:08:41;100425.28;;;9.51;89.05
32298;BME280;18782;48.984;8.548;2024-02-28T10:11:09;100432.63;;;9.65;87.77
32298;BME280;18782;48.984;8.548;2024-02-28T10:13:37;100432.38;;;9.82;87.44
32298;BME280;18782;48.984;8.548;2024-02-28T10:16:06;100435.00;;;9.83;85.41
32298;BME280;18782;48.984;8.548;2024-02-28T10:18:34;100434.88;;;10.04;84.96
32298;BME280;18782;48.984;8.548;2024-02-28T10:21:03;100438.88;;;9.96;84.24
32298;BME280;18782;48.984;8.548;2024-02-28T10:23:31;100441.75;;;10.05;83.50
32298;BME280;18782;48.984;8.548;2024-02-28T10:26:00;100438.06;;;9.97;83.64
32298;BME280;18782;48.984;8.548;2024-02-28T10:28:28;100448.84;;;9.87;83.99
32298;BME280;18782;48.984;8.548;2024-02-28T10:30:57;100463.53;;;9.91;83.71
32298;BME280;18782;48.984;8.548;2024-02-28T10:33:26;100466.06;;;9.89;82.57
32298;BME280;18782;48.984;8.548;2024-02-28T10:35:56;100467.28;;;9.99;82.89
32298;BME280;18782;48.984;8.548;2024-02-28T10:38:26;100481.16;;;10.04;82.34
32298;BME280;18782;48.984;8.548;2024-02-28T10:40:55;100477.44;;;10.20;82.79
32298;BME280;18782;48.984;8.548;2024-02-28T10:43:26;100476.44;;;10.16;82.22
32298;BME280;18782;48.984;8.548;2024-02-28T10:45:56;100479.78;;;10.14;81.04
32298;BME280;18782;48.984;8.548;2024-02-28T10:48:44;100483.69;;;10.03;82.56
32298;BME280;18782;48.984;8.548;2024-02-28T10:51:15;100488.56;;;9.95;82.75
32298;BME280;18782;48.984;8.548;2024-02-28T10:53:46;100486.97;;;9.75;82.56
32298;BME280;18782;48.984;8.548;2024-02-28T10:56:16;100480.84;;;9.71;83.40
32298;BME280;18782;48.984;8.548;2024-02-28T10:58:51;100482.38;;;9.90;83.22
32298;BME280;18782;48.984;8.548;2024-02-28T11:01:19;100480.59;;;9.87;82.38
32298;BME280;18782;48.984;8.548;2024-02-28T11:03:48;100484.78;;;9.85;83.02
32298;BME280;18782;48.984;8.548;2024-02-28T11:06:17;100486.16;;;10.00;83.05
32298;BME280;18782;48.984;8.548;2024-02-28T11:08:46;100481.00;;;10.00;82.06
32298;BME280;18782;48.984;8.548;2024-02-28T11:11:15;100474.38;;;10.06;83.10
32298;BME280;18782;48.984;8.548;2024-02-28T11:13:52;100486.06;;;10.22;80.82
32298;BME280;18782;48.984;8.548;2024-02-28T11:16:31;100484.13;;;10.39;81.03
32298;BME280;18782;48.984;8.548;2024-02-28T11:19:01;100475.13;;;10.53;78.00
32298;BME280;18782;48.984;8.548;2024-02-28T11:21:34;100480.75;;;10.67;77.67
32298;BME280;18782;48.984;8.548;2024-02-28T11:24:02;100484.91;;;10.63;75.99
32298;BME280;18782;48.984;8.548;2024-02-28T11:26:31;100484.84;;;10.60;76.93
32298;BME280;18782;48.984;8.548;2024-02-28T11:29:00;100483.88;;;10.58;76.72
32298;BME280;18782;48.984;8.548;2024-02-28T11:31:27;100487.59;;;10.66;75.44
32298;BME280;18782;48.984;8.548;2024-02-28T11:33:55;100490.25;;;10.69;75.50
32298;BME280;18782;48.984;8.548;2024-02-28T11:36:23;100491.53;;;10.55;73.83
32298;BME280;18782;48.984;8.548;2024-02-28T11:38:51;100488.00;;;10.53;75.75
32298;BME280;18782;48.984;8.548;2024-02-28T11:41:25;100487.63;;;10.68;77.21
32298;BME280;18782;48.984;8.548;2024-02-28T11:43:54;100488.31;;;10.62;78.10
32298;BME280;18782;48.984;8.548;2024-02-28T11:46:23;100496.56;;;10.52;77.43
32298;BME280;18782;48.984;8.548;2024-02-28T11:48:52;100494.91;;;10.54;76.11
32298;BME280;18782;48.984;8.548;2024-02-28T11:51:20;100488.31;;;10.62;73.61
32298;BME280;18782;48.984;8.548;2024-02-28T11:53:47;100492.19;;;10.50;75.95
32298;BME280;18782;48.984;8.548;2024-02-28T11:56:15;100485.16;;;10.44;75.65
32298;BME280;18782;48.984;8.548;2024-02-28T11:58:49;100488.06;;;10.29;75.17
32298;BME280;18782;48.984;8.548;2024-02-28T12:01:17;100485.66;;;10.34;76.12
32298;BME280;18782;48.984;8.548;2024-02-28T12:03:46;100484.22;;;10.42;74.71
32298;BME280;18782;48.984;8.548;2024-02-28T12:06:14;100482.84;;;10.53;75.62
32298;BME280;18782;48.984;8.548;2024-02-28T12:08:41;100475.22;;;10.55;74.45
32298;BME280;18782;48.984;8.548;2024-02-28T12:11:09;100474.13;;;10.75;72.74
32298;BME280;18782;48.984;8.548;2024-02-28T12:13:37;100471.50;;;10.74;74.02
32298;BME280;18782;48.984;8.548;2024-02-28T12:16:05;100466.97;;;10.92;72.96
32298;BME280;18782;48.984;8.548;2024-02-28T12:18:33;100468.88;;;10.99;73.39
32298;BME280;18782;48.984;8.548;2024-02-28T12:21:02;100467.78;;;11.19;72.15
32298;BME280;18782;48.984;8.548;2024-02-28T12:23:30;100466.88;;;11.46;72.02
32298;BME280;18782;48.984;8.548;2024-02-28T12:25:57;100465.41;;;11.54;69.51
32298;BME280;18782;48.984;8.548;2024-02-28T12:28:25;100464.38;;;11.49;69.46
32298;BME280;18782;48.984;8.548;2024-02-28T12:30:55;100456.72;;;11.52;70.97
32298;BME280;18782;48.984;8.548;2024-02-28T12:33:23;100451.00;;;11.62;70.50
32298;BME280;18782;48.984;8.548;2024-02-28T12:35:50;100454.69;;;11.70;68.20
32298;BME280;18782;48.984;8.548;2024-02-28T12:38:20;100449.03;;;11.23;68.03
32298;BME280;18782;48.984;8.548;2024-02-28T12:40:49;100438.63;;;11.20;68.90
32298;BME280;18782;48.984;8.548;2024-02-28T12:43:16;100427.00;;;11.06;69.86
32298;BME280;18782;48.984;8.548;2024-02-28T12:45:44;100435.13;;;11.79;68.32
32298;BME280;18782;48.984;8.548;2024-02-28T12:48:12;100434.41;;;12.49;66.03
32298;BME280;18782;48.984;8.548;2024-02-28T12:50:40;100438.94;;;12.95;65.21
32298;BME280;18782;48.984;8.548;2024-02-28T12:53:07;100426.38;;;13.11;60.15
32298;BME280;18782;48.984;8.548;2024-02-28T12:55:37;100418.16;;;13.72;58.58
32298;BME280;18782;48.984;8.548;2024-02-28T12:58:04;100424.75;;;14.02;56.09